Terminal Aerodrome Forecast
Issued by NWS Shreveport, LA

Home | Current Version | Previous Version | Text Only | Print | Product List | Glossary On
Versions: 1 2 3 4 5 6 7 8 9 10 11 12 13 14 15
000
FTUS44 KSHV 311100
TAFTYR
TAF
KTYR 311127Z 3112/0112 VRB06KT P6SM VCTS OVC035CB
      TEMPO 3112/3116 2SM TSRA BR BKN025CB
     FM311600 17010KT P6SM VCTS BKN040CB OVC080
      TEMPO 3116/3120 3SM -TSRA BR OVC030CB
     FM312000 VRB06KT P6SM VCTS OVC040CB
     FM010200 VRB06KT P6SM OVC030
     FM010600 34008KT P6SM OVC015=

USA.gov is the U.S. government's official web portal to all federal, state and local government web resources and services.